sensor_id;sensor_type;location;lat;lon;timestamp;P1;durP1;ratioP1;P2;durP2;ratioP2
21337;SDS011;10827;50.878;4.382;2022-07-30T00:00:04;18.03;;;6.37;;
21337;SDS011;10827;50.878;4.382;2022-07-30T00:02:32;15.27;;;5.80;;
21337;SDS011;10827;50.878;4.382;2022-07-30T00:04:57;16.00;;;6.27;;
21337;SDS011;10827;50.878;4.382;2022-07-30T00:07:24;15.17;;;6.30;;
21337;SDS011;10827;50.878;4.382;2022-07-30T00:09:49;14.60;;;5.90;;
21337;SDS011;10827;50.878;4.382;2022-07-30T00:12:15;15.93;;;7.33;;
21337;SDS011;10827;50.878;4.382;2022-07-30T00:14:41;15.03;;;6.40;;
21337;SDS011;10827;50.878;4.382;2022-07-30T00:17:06;16.20;;;6.53;;
21337;SDS011;10827;50.878;4.382;2022-07-30T00:19:33;18.60;;;6.87;;
21337;SDS011;10827;50.878;4.382;2022-07-30T00:21:59;16.47;;;7.20;;
21337;SDS011;10827;50.878;4.382;2022-07-30T00:24:25;16.83;;;7.97;;
21337;SDS011;10827;50.878;4.382;2022-07-30T00:26:51;15.63;;;7.13;;
21337;SDS011;10827;50.878;4.382;2022-07-30T00:29:17;16.43;;;7.10;;
21337;SDS011;10827;50.878;4.382;2022-07-30T00:31:43;14.47;;;8.07;;
21337;SDS011;10827;50.878;4.382;2022-07-30T00:34:08;19.70;;;7.20;;
21337;SDS011;10827;50.878;4.382;2022-07-30T00:36:36;17.07;;;7.47;;
21337;SDS011;10827;50.878;4.382;2022-07-30T00:39:03;19.77;;;6.70;;
21337;SDS011;10827;50.878;4.382;2022-07-30T00:41:29;15.70;;;7.17;;
21337;SDS011;10827;50.878;4.382;2022-07-30T00:43:55;20.00;;;7.50;;
21337;SDS011;10827;50.878;4.382;2022-07-30T00:46:21;16.00;;;7.63;;
21337;SDS011;10827;50.878;4.382;2022-07-30T00:48:47;15.67;;;7.50;;
21337;SDS011;10827;50.878;4.382;2022-07-30T00:51:12;20.93;;;8.27;;
21337;SDS011;10827;50.878;4.382;2022-07-30T00:53:38;18.50;;;8.63;;
21337;SDS011;10827;50.878;4.382;2022-07-30T00:56:04;17.40;;;8.30;;
21337;SDS011;10827;50.878;4.382;2022-07-30T00:58:30;16.00;;;8.03;;
21337;SDS011;10827;50.878;4.382;2022-07-30T01:00:56;21.57;;;10.03;;
21337;SDS011;10827;50.878;4.382;2022-07-30T01:03:22;21.63;;;9.37;;
21337;SDS011;10827;50.878;4.382;2022-07-30T01:05:48;19.50;;;8.93;;
21337;SDS011;10827;50.878;4.382;2022-07-30T01:08:15;15.97;;;8.80;;
21337;SDS011;10827;50.878;4.382;2022-07-30T01:10:41;19.87;;;9.00;;
21337;SDS011;10827;50.878;4.382;2022-07-30T01:13:07;24.10;;;10.00;;
21337;SDS011;10827;50.878;4.382;2022-07-30T01:15:33;20.07;;;10.10;;
21337;SDS011;10827;50.878;4.382;2022-07-30T01:18:00;15.73;;;10.60;;
21337;SDS011;10827;50.878;4.382;2022-07-30T01:20:31;22.27;;;10.10;;
21337;SDS011;10827;50.878;4.382;2022-07-30T01:23:05;15.93;;;9.03;;
21337;SDS011;10827;50.878;4.382;2022-07-30T01:25:50;19.77;;;8.83;;
21337;SDS011;10827;50.878;4.382;2022-07-30T01:28:30;23.03;;;10.20;;
21337;SDS011;10827;50.878;4.382;2022-07-30T01:30:59;22.47;;;10.50;;
21337;SDS011;10827;50.878;4.382;2022-07-30T01:33:27;18.67;;;10.10;;
21337;SDS011;10827;50.878;4.382;2022-07-30T01:35:55;21.53;;;10.23;;
21337;SDS011;10827;50.878;4.382;2022-07-30T01:38:24;23.83;;;10.70;;
21337;SDS011;10827;50.878;4.382;2022-07-30T01:40:53;23.73;;;9.73;;
21337;SDS011;10827;50.878;4.382;2022-07-30T01:43:20;21.90;;;9.87;;
21337;SDS011;10827;50.878;4.382;2022-07-30T01:45:48;24.73;;;9.93;;
21337;SDS011;10827;50.878;4.382;2022-07-30T01:48:17;24.47;;;10.40;;
21337;SDS011;10827;50.878;4.382;2022-07-30T01:50:46;17.10;;;10.13;;
21337;SDS011;10827;50.878;4.382;2022-07-30T01:53:16;17.50;;;9.70;;
21337;SDS011;10827;50.878;4.382;2022-07-30T01:55:44;21.30;;;10.27;;
21337;SDS011;10827;50.878;4.382;2022-07-30T01:58:12;21.47;;;9.97;;
21337;SDS011;10827;50.878;4.382;2022-07-30T02:00:41;17.03;;;9.33;;
21337;SDS011;10827;50.878;4.382;2022-07-30T02:03:09;18.43;;;9.40;;
21337;SDS011;10827;50.878;4.382;2022-07-30T02:05:36;20.37;;;9.37;;
21337;SDS011;10827;50.878;4.382;2022-07-30T02:10:50;18.17;;;10.03;;
21337;SDS011;10827;50.878;4.382;2022-07-30T02:13:20;20.43;;;10.00;;
21337;SDS011;10827;50.878;4.382;2022-07-30T02:15:55;20.50;;;10.07;;
21337;SDS011;10827;50.878;4.382;2022-07-30T02:21:04;25.10;;;9.67;;
21337;SDS011;10827;50.878;4.382;2022-07-30T02:23:39;17.20;;;9.83;;
21337;SDS011;10827;50.878;4.382;2022-07-30T02:26:07;20.67;;;10.30;;
21337;SDS011;10827;50.878;4.382;2022-07-30T02:28:37;15.70;;;9.57;;
21337;SDS011;10827;50.878;4.382;2022-07-30T02:31:06;19.93;;;10.00;;
21337;SDS011;10827;50.878;4.382;2022-07-30T02:33:40;23.77;;;10.57;;
21337;SDS011;10827;50.878;4.382;2022-07-30T02:36:08;25.70;;;9.97;;
21337;SDS011;10827;50.878;4.382;2022-07-30T02:38:35;20.10;;;9.60;;
21337;SDS011;10827;50.878;4.382;2022-07-30T02:41:02;17.23;;;11.07;;
21337;SDS011;10827;50.878;4.382;2022-07-30T02:43:31;17.73;;;10.80;;
21337;SDS011;10827;50.878;4.382;2022-07-30T02:45:58;16.27;;;10.03;;
21337;SDS011;10827;50.878;4.382;2022-07-30T02:48:25;23.53;;;10.97;;
21337;SDS011;10827;50.878;4.382;2022-07-30T02:50:53;14.97;;;10.57;;
21337;SDS011;10827;50.878;4.382;2022-07-30T02:53:19;19.90;;;10.90;;
21337;SDS011;10827;50.878;4.382;2022-07-30T02:55:47;24.27;;;11.90;;
21337;SDS011;10827;50.878;4.382;2022-07-30T02:58:21;19.53;;;11.23;;
21337;SDS011;10827;50.878;4.382;2022-07-30T03:00:49;23.63;;;11.30;;
21337;SDS011;10827;50.878;4.382;2022-07-30T03:03:17;21.30;;;10.43;;
21337;SDS011;10827;50.878;4.382;2022-07-30T03:05:44;19.17;;;11.63;;
21337;SDS011;10827;50.878;4.382;2022-07-30T03:08:14;18.53;;;12.03;;
21337;SDS011;10827;50.878;4.382;2022-07-30T03:10:40;18.43;;;11.33;;
21337;SDS011;10827;50.878;4.382;2022-07-30T03:13:09;24.07;;;12.27;;
21337;SDS011;10827;50.878;4.382;2022-07-30T03:15:37;21.07;;;11.57;;
21337;SDS011;10827;50.878;4.382;2022-07-30T03:18:09;23.87;;;12.00;;
21337;SDS011;10827;50.878;4.382;2022-07-30T03:20:38;21.13;;;12.00;;
21337;SDS011;10827;50.878;4.382;2022-07-30T03:23:05;21.97;;;11.77;;
21337;SDS011;10827;50.878;4.382;2022-07-30T03:25:32;21.07;;;12.03;;
21337;SDS011;10827;50.878;4.382;2022-07-30T03:28:00;22.87;;;12.47;;
21337;SDS011;10827;50.878;4.382;2022-07-30T03:30:30;21.03;;;11.43;;
21337;SDS011;10827;50.878;4.382;2022-07-30T03:32:58;20.87;;;12.00;;
21337;SDS011;10827;50.878;4.382;2022-07-30T03:35:24;21.47;;;12.70;;
21337;SDS011;10827;50.878;4.382;2022-07-30T03:37:51;24.53;;;12.47;;
21337;SDS011;10827;50.878;4.382;2022-07-30T03:40:21;23.77;;;11.93;;
21337;SDS011;10827;50.878;4.382;2022-07-30T03:42:48;24.20;;;12.70;;
21337;SDS011;10827;50.878;4.382;2022-07-30T03:45:14;21.07;;;12.77;;
21337;SDS011;10827;50.878;4.382;2022-07-30T03:47:42;18.40;;;11.77;;
21337;SDS011;10827;50.878;4.382;2022-07-30T03:50:10;25.93;;;13.17;;
21337;SDS011;10827;50.878;4.382;2022-07-30T03:52:37;22.20;;;12.27;;
21337;SDS011;10827;50.878;4.382;2022-07-30T03:55:05;22.13;;;12.93;;
21337;SDS011;10827;50.878;4.382;2022-07-30T03:57:33;24.67;;;12.63;;
21337;SDS011;10827;50.878;4.382;2022-07-30T03:59:59;22.60;;;13.73;;
21337;SDS011;10827;50.878;4.382;2022-07-30T04:02:26;25.90;;;12.57;;
21337;SDS011;10827;50.878;4.382;2022-07-30T04:04:52;24.33;;;13.10;;
21337;SDS011;10827;50.878;4.382;2022-07-30T04:07:17;20.77;;;14.33;;
21337;SDS011;10827;50.878;4.382;2022-07-30T04:09:43;27.03;;;14.93;;
21337;SDS011;10827;50.878;4.382;2022-07-30T04:12:09;27.80;;;15.13;;
21337;SDS011;10827;50.878;4.382;2022-07-30T04:14:38;25.10;;;14.03;;
21337;SDS011;10827;50.878;4.382;2022-07-30T04:17:07;29.43;;;15.00;;
21337;SDS011;10827;50.878;4.382;2022-07-30T04:19:48;24.03;;;14.40;;
21337;SDS011;10827;50.878;4.382;2022-07-30T04:22:22;29.93;;;15.23;;
21337;SDS011;10827;50.878;4.382;2022-07-30T04:24:55;31.50;;;15.73;;
21337;SDS011;10827;50.878;4.382;2022-07-30T04:27:23;28.17;;;16.53;;
21337;SDS011;10827;50.878;4.382;2022-07-30T04:29:50;23.03;;;16.30;;
21337;SDS011;10827;50.878;4.382;2022-07-30T04:32:18;28.37;;;14.93;;
21337;SDS011;10827;50.878;4.382;2022-07-30T04:34:47;26.97;;;16.77;;
21337;SDS011;10827;50.878;4.382;2022-07-30T04:37:14;26.53;;;15.63;;
21337;SDS011;10827;50.878;4.382;2022-07-30T04:39:41;28.60;;;17.37;;
21337;SDS011;10827;50.878;4.382;2022-07-30T04:42:07;32.13;;;18.00;;
21337;SDS011;10827;50.878;4.382;2022-07-30T04:44:33;28.83;;;17.47;;
21337;SDS011;10827;50.878;4.382;2022-07-30T04:46:59;29.37;;;18.10;;
21337;SDS011;10827;50.878;4.382;2022-07-30T04:49:25;27.30;;;17.77;;
21337;SDS011;10827;50.878;4.382;2022-07-30T04:51:52;34.10;;;19.33;;
21337;SDS011;10827;50.878;4.382;2022-07-30T04:54:19;33.50;;;19.10;;
21337;SDS011;10827;50.878;4.382;2022-07-30T04:56:46;28.07;;;17.03;;
21337;SDS011;10827;50.878;4.382;2022-07-30T04:59:14;30.03;;;19.10;;
21337;SDS011;10827;50.878;4.382;2022-07-30T05:01:41;23.50;;;17.50;;
21337;SDS011;10827;50.878;4.382;2022-07-30T05:04:10;32.27;;;18.27;;
21337;SDS011;10827;50.878;4.382;2022-07-30T05:06:37;31.20;;;18.33;;
21337;SDS011;10827;50.878;4.382;2022-07-30T05:09:04;30.97;;;17.57;;
21337;SDS011;10827;50.878;4.382;2022-07-30T05:11:30;31.20;;;18.10;;
21337;SDS011;10827;50.878;4.382;2022-07-30T05:13:56;24.70;;;16.17;;
21337;SDS011;10827;50.878;4.382;2022-07-30T05:16:22;29.73;;;17.00;;
21337;SDS011;10827;50.878;4.382;2022-07-30T05:18:48;25.23;;;16.37;;
21337;SDS011;10827;50.878;4.382;2022-07-30T05:21:16;29.00;;;16.47;;
21337;SDS011;10827;50.878;4.382;2022-07-30T05:23:42;31.87;;;16.63;;
21337;SDS011;10827;50.878;4.382;2022-07-30T05:26:07;27.73;;;16.97;;
21337;SDS011;10827;50.878;4.382;2022-07-30T05:28:33;29.80;;;16.67;;
21337;SDS011;10827;50.878;4.382;2022-07-30T05:30:59;27.60;;;16.77;;
21337;SDS011;10827;50.878;4.382;2022-07-30T05:33:24;30.53;;;16.30;;
21337;SDS011;10827;50.878;4.382;2022-07-30T05:35:50;22.93;;;15.47;;
21337;SDS011;10827;50.878;4.382;2022-07-30T05:38:16;28.27;;;16.03;;
21337;SDS011;10827;50.878;4.382;2022-07-30T05:40:42;28.57;;;15.03;;
21337;SDS011;10827;50.878;4.382;2022-07-30T05:43:09;23.87;;;15.23;;
21337;SDS011;10827;50.878;4.382;2022-07-30T05:45:35;24.80;;;14.03;;
21337;SDS011;10827;50.878;4.382;2022-07-30T05:48:01;25.87;;;15.00;;
21337;SDS011;10827;50.878;4.382;2022-07-30T05:50:26;26.80;;;15.30;;
21337;SDS011;10827;50.878;4.382;2022-07-30T05:52:52;26.17;;;14.63;;
21337;SDS011;10827;50.878;4.382;2022-07-30T05:55:19;25.23;;;14.67;;
21337;SDS011;10827;50.878;4.382;2022-07-30T05:57:46;27.53;;;14.33;;
21337;SDS011;10827;50.878;4.382;2022-07-30T06:00:12;26.27;;;14.87;;
21337;SDS011;10827;50.878;4.382;2022-07-30T06:02:38;29.67;;;13.90;;
21337;SDS011;10827;50.878;4.382;2022-07-30T06:05:04;20.80;;;13.00;;
21337;SDS011;10827;50.878;4.382;2022-07-30T06:07:31;22.00;;;12.20;;
21337;SDS011;10827;50.878;4.382;2022-07-30T06:09:56;22.03;;;12.30;;
21337;SDS011;10827;50.878;4.382;2022-07-30T06:12:25;24.83;;;13.03;;
21337;SDS011;10827;50.878;4.382;2022-07-30T06:14:51;26.83;;;12.17;;
21337;SDS011;10827;50.878;4.382;2022-07-30T06:17:17;21.87;;;11.23;;
21337;SDS011;10827;50.878;4.382;2022-07-30T06:19:43;17.60;;;10.00;;
21337;SDS011;10827;50.878;4.382;2022-07-30T06:22:08;18.87;;;9.27;;
21337;SDS011;10827;50.878;4.382;2022-07-30T06:24:34;21.40;;;9.63;;
21337;SDS011;10827;50.878;4.382;2022-07-30T06:27:00;12.57;;;7.60;;
21337;SDS011;10827;50.878;4.382;2022-07-30T06:29:26;14.33;;;7.63;;
21337;SDS011;10827;50.878;4.382;2022-07-30T06:31:52;17.20;;;7.53;;
21337;SDS011;10827;50.878;4.382;2022-07-30T06:34:18;18.63;;;6.70;;
21337;SDS011;10827;50.878;4.382;2022-07-30T06:36:43;14.77;;;6.80;;
21337;SDS011;10827;50.878;4.382;2022-07-30T06:39:09;14.70;;;6.60;;
21337;SDS011;10827;50.878;4.382;2022-07-30T06:41:36;14.47;;;6.17;;
21337;SDS011;10827;50.878;4.382;2022-07-30T06:44:02;10.97;;;5.90;;
21337;SDS011;10827;50.878;4.382;2022-07-30T06:46:28;8.00;;;5.67;;
21337;SDS011;10827;50.878;4.382;2022-07-30T06:48:53;8.33;;;4.97;;
21337;SDS011;10827;50.878;4.382;2022-07-30T06:51:19;13.63;;;5.47;;
21337;SDS011;10827;50.878;4.382;2022-07-30T06:53:45;15.20;;;4.82;;
21337;SDS011;10827;50.878;4.382;2022-07-30T06:56:11;12.55;;;5.50;;
21337;SDS011;10827;50.878;4.382;2022-07-30T06:58:38;11.25;;;5.53;;
21337;SDS011;10827;50.878;4.382;2022-07-30T07:01:04;11.63;;;5.17;;
21337;SDS011;10827;50.878;4.382;2022-07-30T07:03:30;14.10;;;5.85;;
21337;SDS011;10827;50.878;4.382;2022-07-30T07:05:56;8.90;;;4.28;;
21337;SDS011;10827;50.878;4.382;2022-07-30T07:08:22;7.05;;;5.50;;
21337;SDS011;10827;50.878;4.382;2022-07-30T07:10:48;11.70;;;6.13;;
21337;SDS011;10827;50.878;4.382;2022-07-30T07:13:15;10.68;;;4.90;;
21337;SDS011;10827;50.878;4.382;2022-07-30T07:15:41;11.43;;;4.68;;
21337;SDS011;10827;50.878;4.382;2022-07-30T07:18:07;8.35;;;4.70;;
21337;SDS011;10827;50.878;4.382;2022-07-30T07:20:33;12.40;;;6.15;;
21337;SDS011;10827;50.878;4.382;2022-07-30T07:22:59;12.82;;;5.18;;
21337;SDS011;10827;50.878;4.382;2022-07-30T07:25:26;12.68;;;6.45;;
21337;SDS011;10827;50.878;4.382;2022-07-30T07:27:51;10.27;;;4.78;;
21337;SDS011;10827;50.878;4.382;2022-07-30T07:30:17;10.30;;;4.80;;
21337;SDS011;10827;50.878;4.382;2022-07-30T07:32:43;11.23;;;4.47;;
21337;SDS011;10827;50.878;4.382;2022-07-30T07:35:09;9.27;;;5.90;;
21337;SDS011;10827;50.878;4.382;2022-07-30T07:37:37;11.60;;;5.65;;
21337;SDS011;10827;50.878;4.382;2022-07-30T07:40:03;10.45;;;5.50;;
21337;SDS011;10827;50.878;4.382;2022-07-30T07:42:30;12.98;;;4.95;;
21337;SDS011;10827;50.878;4.382;2022-07-30T07:44:55;11.43;;;4.47;;
21337;SDS011;10827;50.878;4.382;2022-07-30T07:47:21;7.28;;;3.20;;
21337;SDS011;10827;50.878;4.382;2022-07-30T07:49:47;7.07;;;2.90;;
21337;SDS011;10827;50.878;4.382;2022-07-30T07:52:13;6.65;;;3.22;;
21337;SDS011;10827;50.878;4.382;2022-07-30T07:54:38;6.18;;;2.53;;
21337;SDS011;10827;50.878;4.382;2022-07-30T07:57:04;7.93;;;3.17;;
21337;SDS011;10827;50.878;4.382;2022-07-30T07:59:32;8.75;;;3.17;;
21337;SDS011;10827;50.878;4.382;2022-07-30T08:01:58;7.88;;;2.90;;
21337;SDS011;10827;50.878;4.382;2022-07-30T08:04:24;6.75;;;2.50;;
21337;SDS011;10827;50.878;4.382;2022-07-30T08:06:50;8.40;;;3.65;;
21337;SDS011;10827;50.878;4.382;2022-07-30T08:09:15;8.05;;;3.60;;
21337;SDS011;10827;50.878;4.382;2022-07-30T08:11:41;6.25;;;3.28;;
21337;SDS011;10827;50.878;4.382;2022-07-30T08:14:07;6.55;;;3.55;;
21337;SDS011;10827;50.878;4.382;2022-07-30T08:16:32;6.32;;;2.78;;
21337;SDS011;10827;50.878;4.382;2022-07-30T08:18:58;3.47;;;2.00;;
21337;SDS011;10827;50.878;4.382;2022-07-30T08:21:24;7.05;;;2.85;;
21337;SDS011;10827;50.878;4.382;2022-07-30T08:23:50;7.32;;;2.90;;
21337;SDS011;10827;50.878;4.382;2022-07-30T08:26:16;6.70;;;2.78;;
21337;SDS011;10827;50.878;4.382;2022-07-30T08:28:41;5.63;;;2.83;;
21337;SDS011;10827;50.878;4.382;2022-07-30T08:31:07;4.88;;;2.50;;
21337;SDS011;10827;50.878;4.382;2022-07-30T08:33:33;5.05;;;2.30;;
21337;SDS011;10827;50.878;4.382;2022-07-30T08:35:59;6.75;;;2.50;;
21337;SDS011;10827;50.878;4.382;2022-07-30T08:38:25;7.40;;;2.65;;
21337;SDS011;10827;50.878;4.382;2022-07-30T08:40:53;7.40;;;2.10;;
21337;SDS011;10827;50.878;4.382;2022-07-30T08:43:20;4.20;;;2.15;;
21337;SDS011;10827;50.878;4.382;2022-07-30T08:45:50;4.95;;;2.30;;
21337;SDS011;10827;50.878;4.382;2022-07-30T08:48:16;4.57;;;2.55;;
21337;SDS011;10827;50.878;4.382;2022-07-30T08:50:45;5.70;;;3.03;;
21337;SDS011;10827;50.878;4.382;2022-07-30T08:53:11;5.85;;;2.60;;
21337;SDS011;10827;50.878;4.382;2022-07-30T08:55:38;4.25;;;2.28;;
21337;SDS011;10827;50.878;4.382;2022-07-30T08:58:05;7.40;;;2.47;;
21337;SDS011;10827;50.878;4.382;2022-07-30T09:00:53;7.25;;;2.53;;
21337;SDS011;10827;50.878;4.382;2022-07-30T09:03:19;9.63;;;2.60;;
21337;SDS011;10827;50.878;4.382;2022-07-30T09:05:45;3.20;;;2.15;;
21337;SDS011;10827;50.878;4.382;2022-07-30T09:08:11;4.43;;;2.60;;
21337;SDS011;10827;50.878;4.382;2022-07-30T09:10:37;5.55;;;2.40;;
21337;SDS011;10827;50.878;4.382;2022-07-30T09:13:03;5.18;;;2.40;;
21337;SDS011;10827;50.878;4.382;2022-07-30T09:15:29;8.50;;;2.50;;
21337;SDS011;10827;50.878;4.382;2022-07-30T09:17:57;5.43;;;2.20;;
21337;SDS011;10827;50.878;4.382;2022-07-30T09:20:28;9.85;;;2.15;;
21337;SDS011;10827;50.878;4.382;2022-07-30T09:22:57;4.82;;;2.25;;
21337;SDS011;10827;50.878;4.382;2022-07-30T09:25:41;8.60;;;2.70;;
21337;SDS011;10827;50.878;4.382;2022-07-30T09:28:09;7.13;;;2.58;;
21337;SDS011;10827;50.878;4.382;2022-07-30T09:30:45;5.15;;;2.40;;
21337;SDS011;10827;50.878;4.382;2022-07-30T09:36:00;5.43;;;3.00;;
21337;SDS011;10827;50.878;4.382;2022-07-30T09:38:28;9.85;;;2.92;;
21337;SDS011;10827;50.878;4.382;2022-07-30T09:40:54;4.18;;;2.53;;
21337;SDS011;10827;50.878;4.382;2022-07-30T09:43:21;3.95;;;2.33;;
21337;SDS011;10827;50.878;4.382;2022-07-30T09:45:51;3.97;;;2.55;;
21337;SDS011;10827;50.878;4.382;2022-07-30T09:48:23;7.90;;;2.58;;
21337;SDS011;10827;50.878;4.382;2022-07-30T09:50:51;5.28;;;2.53;;
21337;SDS011;10827;50.878;4.382;2022-07-30T09:53:18;4.18;;;3.03;;
21337;SDS011;10827;50.878;4.382;2022-07-30T09:55:48;6.75;;;3.13;;
21337;SDS011;10827;50.878;4.382;2022-07-30T09:58:14;6.00;;;2.50;;
21337;SDS011;10827;50.878;4.382;2022-07-30T10:00:41;5.05;;;2.60;;
21337;SDS011;10827;50.878;4.382;2022-07-30T10:03:15;8.23;;;2.65;;
21337;SDS011;10827;50.878;4.382;2022-07-30T10:05:55;8.38;;;3.03;;
21337;SDS011;10827;50.878;4.382;2022-07-30T10:09:04;5.72;;;2.60;;
21337;SDS011;10827;50.878;4.382;2022-07-30T10:11:16;14.18;;;4.15;;
21337;SDS011;10827;50.878;4.382;2022-07-30T10:13:46;7.70;;;3.28;;
21337;SDS011;10827;50.878;4.382;2022-07-30T10:16:13;6.88;;;2.58;;
21337;SDS011;10827;50.878;4.382;2022-07-30T10:18:40;6.07;;;2.88;;
21337;SDS011;10827;50.878;4.382;2022-07-30T10:21:06;6.85;;;2.72;;
21337;SDS011;10827;50.878;4.382;2022-07-30T10:23:33;6.03;;;2.80;;
21337;SDS011;10827;50.878;4.382;2022-07-30T10:25:59;5.63;;;2.80;;
21337;SDS011;10827;50.878;4.382;2022-07-30T10:28:26;4.88;;;2.90;;
21337;SDS011;10827;50.878;4.382;2022-07-30T10:30:53;6.75;;;2.65;;
21337;SDS011;10827;50.878;4.382;2022-07-30T10:33:21;20.15;;;2.95;;
21337;SDS011;10827;50.878;4.382;2022-07-30T10:35:48;8.02;;;3.13;;
21337;SDS011;10827;50.878;4.382;2022-07-30T10:38:14;4.90;;;2.83;;
21337;SDS011;10827;50.878;4.382;2022-07-30T10:41:03;7.05;;;2.70;;
21337;SDS011;10827;50.878;4.382;2022-07-30T10:48:50;5.18;;;2.30;;
21337;SDS011;10827;50.878;4.382;2022-07-30T10:51:15;2.75;;;2.40;;
21337;SDS011;10827;50.878;4.382;2022-07-30T10:53:42;5.40;;;2.47;;
21337;SDS011;10827;50.878;4.382;2022-07-30T10:56:20;7.30;;;2.72;;
21337;SDS011;10827;50.878;4.382;2022-07-30T11:01:23;7.15;;;2.92;;
21337;SDS011;10827;50.878;4.382;2022-07-30T11:06:51;5.80;;;2.38;;
21337;SDS011;10827;50.878;4.382;2022-07-30T11:09:33;8.13;;;2.50;;
21337;SDS011;10827;50.878;4.382;2022-07-30T11:12:09;34.63;;;3.67;;
21337;SDS011;10827;50.878;4.382;2022-07-30T11:17:10;5.32;;;2.58;;
21337;SDS011;10827;50.878;4.382;2022-07-30T11:22:33;5.45;;;2.75;;
21337;SDS011;10827;50.878;4.382;2022-07-30T11:25:03;5.13;;;2.47;;
21337;SDS011;10827;50.878;4.382;2022-07-30T11:27:37;3.17;;;2.22;;
21337;SDS011;10827;50.878;4.382;2022-07-30T11:30:48;7.53;;;2.33;;
21337;SDS011;10827;50.878;4.382;2022-07-30T11:32:53;6.15;;;2.58;;
21337;SDS011;10827;50.878;4.382;2022-07-30T11:43:16;7.00;;;2.60;;
21337;SDS011;10827;50.878;4.382;2022-07-30T11:45:47;10.38;;;2.90;;
21337;SDS011;10827;50.878;4.382;2022-07-30T11:48:15;8.75;;;2.80;;
21337;SDS011;10827;50.878;4.382;2022-07-30T11:50:43;8.25;;;3.40;;
21337;SDS011;10827;50.878;4.382;2022-07-30T11:53:18;7.47;;;2.88;;
21337;SDS011;10827;50.878;4.382;2022-07-30T11:55:48;6.32;;;3.10;;
21337;SDS011;10827;50.878;4.382;2022-07-30T12:00:52;4.53;;;2.70;;
21337;SDS011;10827;50.878;4.382;2022-07-30T12:03:23;3.25;;;2.63;;
21337;SDS011;10827;50.878;4.382;2022-07-30T12:05:50;3.78;;;2.90;;
21337;SDS011;10827;50.878;4.382;2022-07-30T12:08:16;5.55;;;3.15;;
21337;SDS011;10827;50.878;4.382;2022-07-30T12:10:43;10.63;;;2.95;;
21337;SDS011;10827;50.878;4.382;2022-07-30T12:13:20;10.43;;;3.08;;
21337;SDS011;10827;50.878;4.382;2022-07-30T12:15:46;4.05;;;2.47;;
21337;SDS011;10827;50.878;4.382;2022-07-30T12:18:14;5.45;;;2.67;;
21337;SDS011;10827;50.878;4.382;2022-07-30T12:20:59;5.18;;;2.70;;
21337;SDS011;10827;50.878;4.382;2022-07-30T12:23:27;12.27;;;4.45;;
21337;SDS011;10827;50.878;4.382;2022-07-30T12:25:53;4.45;;;2.83;;
21337;SDS011;10827;50.878;4.382;2022-07-30T12:28:24;5.43;;;2.40;;
21337;SDS011;10827;50.878;4.382;2022-07-30T12:30:52;5.63;;;2.65;;
21337;SDS011;10827;50.878;4.382;2022-07-30T12:33:19;5.65;;;2.50;;
21337;SDS011;10827;50.878;4.382;2022-07-30T12:35:52;4.65;;;2.72;;
21337;SDS011;10827;50.878;4.382;2022-07-30T12:38:20;3.15;;;2.30;;
21337;SDS011;10827;50.878;4.382;2022-07-30T12:40:51;10.13;;;2.67;;
21337;SDS011;10827;50.878;4.382;2022-07-30T12:46:23;5.05;;;2.55;;
21337;SDS011;10827;50.878;4.382;2022-07-30T12:51:24;5.90;;;2.42;;
21337;SDS011;10827;50.878;4.382;2022-07-30T12:53:53;12.52;;;2.70;;
21337;SDS011;10827;50.878;4.382;2022-07-30T12:56:26;4.10;;;2.35;;
21337;SDS011;10827;50.878;4.382;2022-07-30T12:58:54;8.93;;;2.30;;
21337;SDS011;10827;50.878;4.382;2022-07-30T13:01:40;4.72;;;2.38;;
21337;SDS011;10827;50.878;4.382;2022-07-30T13:04:11;4.15;;;2.10;;
21337;SDS011;10827;50.878;4.382;2022-07-30T13:06:38;2.80;;;2.05;;
21337;SDS011;10827;50.878;4.382;2022-07-30T13:09:05;3.70;;;2.15;;
21337;SDS011;10827;50.878;4.382;2022-07-30T13:11:42;3.85;;;2.50;;
21337;SDS011;10827;50.878;4.382;2022-07-30T13:14:09;4.07;;;2.55;;
21337;SDS011;10827;50.878;4.382;2022-07-30T13:16:37;5.03;;;2.60;;
21337;SDS011;10827;50.878;4.382;2022-07-30T13:19:03;8.40;;;2.58;;
21337;SDS011;10827;50.878;4.382;2022-07-30T13:21:39;3.60;;;2.30;;
21337;SDS011;10827;50.878;4.382;2022-07-30T13:24:05;7.82;;;2.67;;
21337;SDS011;10827;50.878;4.382;2022-07-30T13:26:32;5.72;;;2.58;;
21337;SDS011;10827;50.878;4.382;2022-07-30T13:28:59;2.92;;;2.35;;
21337;SDS011;10827;50.878;4.382;2022-07-30T13:31:26;5.28;;;2.42;;
21337;SDS011;10827;50.878;4.382;2022-07-30T13:33:51;7.45;;;2.58;;
21337;SDS011;10827;50.878;4.382;2022-07-30T13:36:17;8.30;;;2.50;;
21337;SDS011;10827;50.878;4.382;2022-07-30T13:38:43;5.47;;;2.35;;
21337;SDS011;10827;50.878;4.382;2022-07-30T13:41:09;5.60;;;2.33;;
21337;SDS011;10827;50.878;4.382;2022-07-30T13:43:35;3.05;;;2.22;;
21337;SDS011;10827;50.878;4.382;2022-07-30T13:46:02;5.10;;;2.50;;
21337;SDS011;10827;50.878;4.382;2022-07-30T13:48:28;7.43;;;2.55;;
21337;SDS011;10827;50.878;4.382;2022-07-30T13:50:54;6.85;;;2.30;;
21337;SDS011;10827;50.878;4.382;2022-07-30T13:53:20;9.85;;;2.97;;
21337;SDS011;10827;50.878;4.382;2022-07-30T13:55:46;6.13;;;2.35;;
21337;SDS011;10827;50.878;4.382;2022-07-30T13:58:12;6.82;;;2.42;;
21337;SDS011;10827;50.878;4.382;2022-07-30T14:00:38;4.78;;;2.53;;
21337;SDS011;10827;50.878;4.382;2022-07-30T14:03:05;4.30;;;2.15;;
21337;SDS011;10827;50.878;4.382;2022-07-30T14:05:32;4.65;;;2.38;;
21337;SDS011;10827;50.878;4.382;2022-07-30T14:08:00;4.25;;;2.47;;
21337;SDS011;10827;50.878;4.382;2022-07-30T14:10:26;8.40;;;2.78;;
21337;SDS011;10827;50.878;4.382;2022-07-30T14:12:53;6.40;;;2.60;;
21337;SDS011;10827;50.878;4.382;2022-07-30T14:15:20;4.68;;;2.67;;
21337;SDS011;10827;50.878;4.382;2022-07-30T14:17:50;3.22;;;2.28;;
21337;SDS011;10827;50.878;4.382;2022-07-30T14:20:17;6.03;;;2.30;;
21337;SDS011;10827;50.878;4.382;2022-07-30T14:22:43;5.28;;;2.22;;
21337;SDS011;10827;50.878;4.382;2022-07-30T14:25:09;4.80;;;2.63;;
21337;SDS011;10827;50.878;4.382;2022-07-30T14:27:35;6.55;;;2.28;;
21337;SDS011;10827;50.878;4.382;2022-07-30T14:30:02;4.25;;;2.78;;
21337;SDS011;10827;50.878;4.382;2022-07-30T14:32:29;5.95;;;2.78;;
21337;SDS011;10827;50.878;4.382;2022-07-30T14:34:56;5.82;;;2.88;;
21337;SDS011;10827;50.878;4.382;2022-07-30T14:37:22;4.57;;;2.60;;
21337;SDS011;10827;50.878;4.382;2022-07-30T14:39:48;5.65;;;2.40;;
21337;SDS011;10827;50.878;4.382;2022-07-30T14:42:14;4.53;;;2.10;;
21337;SDS011;10827;50.878;4.382;2022-07-30T14:44:40;4.03;;;2.15;;
21337;SDS011;10827;50.878;4.382;2022-07-30T14:47:05;3.80;;;2.40;;
21337;SDS011;10827;50.878;4.382;2022-07-30T14:49:31;3.97;;;2.35;;
21337;SDS011;10827;50.878;4.382;2022-07-30T14:51:57;8.02;;;2.13;;
21337;SDS011;10827;50.878;4.382;2022-07-30T14:54:24;2.75;;;2.20;;
21337;SDS011;10827;50.878;4.382;2022-07-30T14:56:51;5.07;;;2.50;;
21337;SDS011;10827;50.878;4.382;2022-07-30T14:59:17;3.05;;;2.25;;
21337;SDS011;10827;50.878;4.382;2022-07-30T15:01:43;6.15;;;2.30;;
21337;SDS011;10827;50.878;4.382;2022-07-30T15:04:11;4.03;;;2.35;;
21337;SDS011;10827;50.878;4.382;2022-07-30T15:06:37;7.60;;;2.28;;
21337;SDS011;10827;50.878;4.382;2022-07-30T15:09:04;5.40;;;2.30;;
21337;SDS011;10827;50.878;4.382;2022-07-30T15:11:31;2.83;;;2.20;;
21337;SDS011;10827;50.878;4.382;2022-07-30T15:13:57;3.75;;;2.40;;
21337;SDS011;10827;50.878;4.382;2022-07-30T15:16:22;4.25;;;2.17;;
21337;SDS011;10827;50.878;4.382;2022-07-30T15:18:48;7.55;;;2.35;;